createdAt,value
2022-11-01T00:02:20.046Z,15.10
2022-11-01T00:04:52.505Z,14.02
2022-11-01T00:07:22.296Z,15.93
2022-11-01T00:09:52.059Z,14.02
2022-11-01T00:12:22.225Z,14.98
2022-11-01T00:14:52.024Z,13.88
2022-11-01T00:17:21.917Z,15.45
2022-11-01T00:19:54.268Z,14.65
2022-11-01T00:22:24.551Z,13.82
2022-11-01T00:24:55.082Z,14.80
2022-11-01T00:27:24.989Z,15.23
2022-11-01T00:29:54.727Z,14.65
2022-11-01T00:32:24.501Z,14.85
2022-11-01T00:34:56.850Z,15.32
2022-11-01T00:37:26.759Z,15.20
2022-11-01T00:39:56.527Z,15.48
2022-11-01T00:42:26.345Z,15.60
2022-11-01T00:44:56.101Z,15.80
2022-11-01T00:47:25.851Z,14.23
2022-11-01T00:49:58.155Z,15.13
2022-11-01T00:52:27.974Z,14.95
2022-11-01T00:54:57.725Z,14.27
2022-11-01T00:57:27.507Z,14.40
2022-11-01T00:59:57.340Z,14.02
2022-11-01T01:02:27.336Z,14.18
2022-11-01T01:04:59.743Z,13.85
2022-11-01T01:07:29.496Z,14.32
2022-11-01T01:09:59.264Z,13.13
2022-11-01T01:12:29.314Z,13.10
2022-11-01T01:14:59.067Z,14.35
2022-11-01T01:17:32.811Z,12.82
2022-11-01T01:20:07.455Z,14.20
2022-11-01T01:22:37.264Z,13.27
2022-11-01T01:25:08.554Z,14.57
2022-11-01T01:27:38.298Z,14.07
2022-11-01T01:30:09.610Z,14.70
2022-11-01T01:32:39.585Z,12.77
2022-11-01T01:35:12.626Z,13.00
2022-11-01T01:37:42.532Z,12.85
2022-11-01T01:40:12.913Z,12.57
2022-11-01T01:42:44.452Z,12.77
2022-11-01T01:45:26.560Z,12.02
2022-11-01T01:47:58.443Z,12.75
2022-11-01T01:50:37.276Z,12.93
2022-11-01T01:53:09.501Z,12.32
2022-11-01T01:55:44.313Z,12.98
2022-11-01T01:58:16.086Z,12.00
2022-11-01T02:00:47.256Z,11.20
2022-11-01T02:03:17.936Z,11.50
2022-11-01T02:05:54.079Z,11.20
2022-11-01T02:08:29.292Z,11.93
2022-11-01T02:11:02.028Z,11.73
2022-11-01T02:13:32.550Z,11.63
2022-11-01T02:16:20.950Z,10.93
2022-11-01T02:19:00.219Z,10.68
2022-11-01T02:21:51.500Z,11.27
2022-11-01T02:24:52.243Z,11.15
2022-11-01T02:27:28.076Z,11.23
2022-11-01T02:30:13.355Z,11.02
2022-11-01T02:32:54.834Z,11.07
2022-11-01T02:35:28.875Z,12.02
2022-11-01T02:38:04.102Z,11.95
2022-11-01T02:40:43.741Z,11.43
2022-11-01T02:43:19.946Z,11.50
2022-11-01T02:45:52.140Z,11.10
2022-11-01T02:48:26.621Z,10.57
2022-11-01T02:50:59.844Z,10.98
2022-11-01T02:53:30.475Z,10.95
2022-11-01T02:56:00.278Z,11.57
2022-11-01T02:58:32.405Z,10.90
2022-11-01T03:01:02.205Z,10.77
2022-11-01T03:03:36.906Z,10.55
2022-11-01T03:06:14.501Z,10.48
2022-11-01T03:08:47.729Z,9.82
2022-11-01T03:11:20.236Z,8.93
2022-11-01T03:14:01.861Z,9.88
2022-11-01T03:16:35.824Z,10.27
2022-11-01T03:19:16.111Z,9.38
2022-11-01T03:21:50.571Z,9.38
2022-11-01T03:26:58.593Z,9.77
2022-11-01T03:29:31.081Z,8.95
2022-11-01T03:32:03.834Z,9.35
2022-11-01T03:34:38.847Z,8.95
2022-11-01T03:37:13.282Z,8.77
2022-11-01T03:42:18.516Z,8.68
2022-11-01T03:44:51.522Z,9.00
2022-11-01T03:47:21.674Z,9.85
2022-11-01T03:50:14.328Z,9.38
2022-11-01T03:52:44.471Z,9.35
2022-11-01T03:55:23.630Z,8.55
2022-11-01T03:57:55.377Z,8.75
2022-11-01T04:00:27.261Z,9.20
2022-11-01T04:02:58.347Z,9.07
2022-11-01T04:05:33.859Z,7.88
2022-11-01T04:08:03.700Z,8.70
2022-11-01T04:10:33.832Z,8.65
2022-11-01T04:13:04.260Z,8.65
2022-11-01T04:15:46.810Z,8.57
2022-11-01T04:18:31.018Z,8.75
2022-11-01T04:21:06.069Z,8.85
2022-11-01T04:23:36.116Z,8.15
2022-11-01T04:26:07.260Z,8.13
2022-11-01T04:28:37.105Z,8.35
2022-11-01T04:31:07.205Z,8.70
2022-11-01T04:33:36.959Z,8.80
2022-11-01T04:36:10.952Z,8.35
2022-11-01T04:38:40.982Z,7.63
2022-11-01T04:41:10.776Z,8.10
2022-11-01T04:43:40.741Z,7.53
2022-11-01T04:46:10.540Z,8.38
2022-11-01T04:48:40.293Z,8.75
2022-11-01T04:51:12.849Z,8.63
2022-11-01T04:53:42.662Z,8.57
2022-11-01T04:56:16.089Z,8.98
2022-11-01T04:58:46.669Z,7.80
2022-11-01T05:01:17.304Z,9.18
2022-11-01T05:03:47.167Z,8.85
2022-11-01T05:06:19.730Z,9.98
2022-11-01T05:08:49.558Z,10.18
2022-11-01T05:11:25.277Z,10.10
2022-11-01T05:13:55.045Z,11.00
2022-11-01T05:16:24.936Z,10.32
2022-11-01T05:18:54.681Z,10.55
2022-11-01T05:21:27.010Z,10.25
2022-11-01T05:23:56.772Z,9.98
2022-11-01T05:26:27.770Z,10.10
2022-11-01T05:28:57.573Z,10.32
2022-11-01T05:31:27.368Z,9.07
2022-11-01T05:33:57.086Z,9.65
2022-11-01T05:36:29.533Z,9.68
2022-11-01T05:38:59.580Z,9.75
2022-11-01T05:41:29.965Z,8.68
2022-11-01T05:43:59.855Z,8.68
2022-11-01T05:46:29.994Z,9.40
2022-11-01T05:48:59.779Z,10.98
2022-11-01T05:51:32.123Z,11.20
2022-11-01T05:54:01.906Z,11.02
2022-11-01T05:56:31.686Z,10.75
2022-11-01T05:59:01.464Z,10.52
2022-11-01T06:01:31.211Z,10.10
2022-11-01T06:04:02.086Z,10.63
2022-11-01T06:06:35.101Z,9.43
2022-11-01T06:09:04.894Z,8.95
2022-11-01T06:11:39.087Z,10.02
2022-11-01T06:14:14.544Z,10.35
2022-11-01T06:16:44.305Z,9.50
2022-11-01T06:19:14.305Z,9.43
2022-11-01T06:21:46.690Z,9.52
2022-11-01T06:24:16.907Z,9.77
2022-11-01T06:26:46.910Z,9.38
2022-11-01T06:29:18.022Z,9.90
2022-11-01T06:31:47.845Z,9.15
2022-11-01T06:34:17.592Z,7.80
2022-11-01T06:36:49.963Z,7.30
2022-11-01T06:39:19.801Z,6.88
2022-11-01T06:41:49.609Z,5.90
2022-11-01T06:44:19.385Z,5.57
2022-11-01T06:46:49.143Z,5.65
2022-11-01T06:49:19.458Z,5.03
2022-11-01T06:51:51.894Z,4.57
2022-11-01T06:54:21.659Z,4.47
2022-11-01T06:56:51.734Z,4.95
2022-11-01T06:59:21.493Z,4.65
2022-11-01T07:01:52.148Z,4.90
2022-11-01T07:04:22.054Z,4.45
2022-11-01T07:06:54.400Z,4.03
2022-11-01T07:09:24.294Z,3.35
2022-11-01T07:11:53.999Z,3.10
2022-11-01T07:14:23.733Z,2.70
2022-11-01T07:16:53.471Z,2.85
2022-11-01T07:19:23.750Z,3.17
2022-11-01T07:21:58.849Z,3.40
2022-11-01T07:24:28.601Z,3.67
2022-11-01T07:26:58.724Z,3.33
2022-11-01T07:29:28.546Z,3.70
2022-11-01T07:31:58.366Z,3.50
2022-11-01T07:34:28.086Z,3.65
2022-11-01T07:37:00.444Z,3.05
2022-11-01T07:39:30.316Z,2.80
2022-11-01T07:42:01.496Z,3.10
2022-11-01T07:44:31.228Z,3.03
2022-11-01T07:47:00.977Z,2.70
2022-11-01T07:49:30.777Z,2.22
2022-11-01T07:52:04.240Z,2.00
2022-11-01T07:54:34.020Z,2.03
2022-11-01T07:57:03.760Z,1.63
2022-11-01T07:59:33.552Z,1.33
2022-11-01T08:02:05.479Z,1.50
2022-11-01T08:04:37.837Z,1.00
2022-11-01T08:07:10.339Z,1.13
2022-11-01T08:09:40.166Z,1.20
2022-11-01T08:12:10.241Z,0.70
2022-11-01T08:14:39.981Z,0.85
2022-11-01T08:17:10.951Z,0.60
2022-11-01T08:19:40.692Z,0.77
2022-11-01T08:22:13.021Z,0.75
2022-11-01T08:24:42.778Z,0.60
2022-11-01T08:27:12.674Z,0.70
2022-11-01T08:29:42.925Z,0.70
2022-11-01T08:32:12.691Z,0.80
2022-11-01T08:34:42.439Z,0.90
2022-11-01T08:37:14.754Z,0.73
2022-11-01T08:39:44.540Z,0.73
2022-11-01T08:42:14.344Z,0.80
2022-11-01T08:44:44.114Z,1.00
2022-11-01T08:47:13.864Z,0.90
2022-11-01T08:49:43.623Z,0.80
2022-11-01T08:52:16.046Z,0.75
2022-11-01T08:54:45.819Z,1.02
2022-11-01T08:57:16.090Z,0.90
2022-11-01T08:59:45.811Z,0.80
2022-11-01T09:02:15.721Z,0.80
2022-11-01T09:04:45.566Z,0.65
2022-11-01T09:07:17.908Z,0.88
2022-11-01T09:09:47.798Z,0.60
2022-11-01T09:12:23.448Z,0.70
2022-11-01T09:14:54.288Z,0.50
2022-11-01T09:17:24.100Z,1.10
2022-11-01T09:19:53.873Z,0.95
2022-11-01T09:22:26.512Z,1.17
2022-11-01T09:24:58.728Z,0.70
2022-11-01T09:27:28.637Z,0.68
2022-11-01T09:29:58.488Z,0.75
2022-11-01T09:32:31.171Z,0.65
2022-11-01T09:35:00.967Z,0.95
2022-11-01T09:37:33.403Z,0.80
2022-11-01T09:40:03.470Z,0.90
2022-11-01T09:42:36.014Z,0.60
2022-11-01T09:45:10.873Z,0.40
2022-11-01T09:47:41.541Z,0.68
2022-11-01T09:50:22.462Z,0.50
2022-11-01T09:52:56.581Z,0.70
2022-11-01T09:55:36.292Z,0.77
2022-11-01T09:58:11.741Z,0.75
2022-11-01T10:00:47.331Z,0.73
2022-11-01T10:03:33.790Z,0.70
2022-11-01T10:06:09.939Z,0.90
2022-11-01T10:08:57.039Z,0.70
2022-11-01T10:11:40.803Z,0.80
2022-11-01T10:14:20.769Z,0.73
2022-11-01T10:16:55.862Z,0.90
2022-11-01T10:19:30.515Z,1.05
2022-11-01T10:22:06.046Z,1.08
2022-11-01T10:24:42.826Z,1.30
2022-11-01T10:27:21.081Z,1.20
2022-11-01T10:29:57.630Z,1.00
2022-11-01T10:32:35.418Z,0.85
2022-11-01T10:35:12.856Z,0.82
2022-11-01T10:37:57.558Z,1.23
2022-11-01T10:40:44.723Z,1.13
2022-11-01T10:43:17.927Z,1.40
2022-11-01T10:45:50.099Z,0.90
2022-11-01T10:48:29.944Z,1.02
2022-11-01T10:51:03.623Z,1.20
2022-11-01T10:53:38.876Z,1.13
2022-11-01T10:56:19.855Z,1.35
2022-11-01T10:59:00.507Z,0.95
2022-11-01T11:01:34.368Z,1.63
2022-11-01T11:04:07.868Z,1.38
2022-11-01T11:06:39.856Z,1.30
2022-11-01T11:09:10.158Z,1.23
2022-11-01T11:11:44.342Z,1.38
2022-11-01T11:14:15.037Z,1.20
2022-11-01T11:16:48.819Z,1.25
2022-11-01T11:19:25.226Z,1.10
2022-11-01T11:21:56.689Z,1.40
2022-11-01T11:24:28.874Z,1.20
2022-11-01T11:27:01.767Z,1.20
2022-11-01T11:29:38.890Z,1.30
2022-11-01T11:32:16.499Z,1.20
2022-11-01T11:34:52.843Z,1.10
2022-11-01T11:37:25.637Z,1.30
2022-11-01T11:40:21.847Z,1.25
2022-11-01T11:42:55.516Z,1.05
2022-11-01T11:45:29.211Z,1.30
2022-11-01T11:48:00.340Z,1.27
2022-11-01T11:50:40.444Z,1.67
2022-11-01T11:53:20.263Z,1.70
2022-11-01T11:55:51.424Z,1.30
2022-11-01T11:58:29.274Z,1.40
2022-11-01T12:01:03.898Z,1.42
2022-11-01T12:03:39.877Z,1.33
2022-11-01T12:06:11.443Z,1.35
2022-11-01T12:08:48.860Z,1.50
2022-11-01T12:11:19.392Z,1.30
2022-11-01T12:14:05.627Z,1.80
2022-11-01T12:16:43.317Z,1.35
2022-11-01T12:19:27.338Z,1.63
2022-11-01T12:21:58.617Z,1.48
2022-11-01T12:24:31.044Z,1.80
2022-11-01T12:27:06.812Z,1.35
2022-11-01T12:29:45.072Z,1.67
2022-11-01T12:32:20.264Z,1.42
2022-11-01T12:34:53.079Z,1.50
2022-11-01T12:37:27.303Z,1.95
2022-11-01T12:40:00.874Z,1.40
2022-11-01T12:42:32.738Z,1.55
2022-11-01T12:45:15.463Z,2.05
2022-11-01T12:47:49.409Z,1.50
2022-11-01T12:50:23.980Z,1.83
2022-11-01T12:52:58.634Z,1.58
2022-11-01T12:55:34.017Z,1.50
2022-11-01T12:58:04.102Z,1.52
2022-11-01T13:00:53.838Z,1.50
2022-11-01T13:03:32.936Z,1.85
2022-11-01T13:06:11.901Z,1.50
2022-11-01T13:08:48.737Z,1.80
2022-11-01T13:11:25.935Z,1.20
2022-11-01T13:14:05.687Z,1.55
2022-11-01T13:16:44.511Z,1.52
2022-11-01T13:19:23.944Z,1.27
2022-11-01T13:21:57.868Z,1.48
2022-11-01T13:24:34.910Z,1.40
2022-11-01T13:27:12.798Z,1.50
2022-11-01T13:29:50.396Z,1.73
2022-11-01T13:32:33.485Z,1.92
2022-11-01T13:35:23.698Z,1.25
2022-11-01T13:37:59.638Z,2.72
2022-11-01T13:40:35.552Z,1.45
2022-11-01T13:43:11.520Z,1.42
2022-11-01T13:46:13.774Z,1.55
2022-11-01T13:49:07.210Z,1.80
2022-11-01T13:51:43.257Z,2.00
2022-11-01T13:54:22.330Z,1.77
2022-11-01T13:56:59.576Z,1.42
2022-11-01T13:59:34.675Z,1.90
2022-11-01T14:02:36.645Z,1.50
2022-11-01T14:05:12.665Z,1.50
2022-11-01T14:08:22.928Z,1.27
2022-11-01T14:10:53.865Z,1.67
2022-11-01T14:13:34.555Z,1.40
2022-11-01T14:16:23.774Z,1.83
2022-11-01T14:19:22.001Z,1.63
2022-11-01T14:21:56.553Z,1.83
2022-11-01T14:24:34.958Z,1.80
2022-11-01T14:27:22.753Z,1.70
2022-11-01T14:29:56.832Z,2.60
2022-11-01T14:32:29.240Z,1.85
2022-11-01T14:35:04.581Z,1.60
2022-11-01T14:37:43.823Z,1.92
2022-11-01T14:40:33.218Z,1.70
2022-11-01T14:43:08.759Z,1.55
2022-11-01T14:45:44.531Z,1.90
2022-11-01T14:48:19.717Z,1.85
2022-11-01T14:50:57.349Z,1.50
2022-11-01T14:53:35.437Z,1.65
2022-11-01T14:56:17.174Z,1.80
2022-11-01T14:58:47.400Z,1.80
2022-11-01T15:01:19.781Z,1.88
2022-11-01T15:04:00.078Z,2.08
2022-11-01T15:06:31.760Z,1.75
2022-11-01T15:09:05.547Z,1.88
2022-11-01T15:11:37.237Z,1.52
2022-11-01T15:14:10.005Z,1.50
2022-11-01T15:16:40.112Z,1.42
2022-11-01T15:19:17.588Z,1.65
2022-11-01T15:21:47.883Z,1.60
2022-11-01T15:24:26.571Z,1.77
2022-11-01T15:26:56.783Z,1.70
2022-11-01T15:29:27.559Z,2.00
2022-11-01T15:32:00.244Z,1.70
2022-11-01T15:34:31.795Z,2.45
2022-11-01T15:37:12.539Z,2.38
2022-11-01T15:39:45.004Z,1.98
2022-11-01T15:42:17.829Z,1.90
2022-11-01T15:44:47.611Z,2.05
2022-11-01T15:47:21.121Z,2.22
2022-11-01T15:49:54.052Z,2.03
2022-11-01T15:52:26.739Z,2.30
2022-11-01T15:55:05.246Z,2.10
2022-11-01T15:57:39.548Z,2.08
2022-11-01T16:02:46.569Z,2.28
2022-11-01T16:05:20.453Z,2.17
2022-11-01T16:07:50.545Z,2.05
2022-11-01T16:10:25.880Z,2.00
2022-11-01T16:12:57.345Z,2.38
2022-11-01T16:15:31.077Z,2.30
2022-11-01T16:18:02.461Z,2.38
2022-11-01T16:20:35.380Z,1.80
2022-11-01T16:23:06.726Z,2.00
2022-11-01T16:25:40.596Z,2.15
2022-11-01T16:28:32.170Z,2.10
2022-11-01T16:31:02.027Z,2.40
2022-11-01T16:33:44.523Z,2.65
2022-11-01T16:36:42.804Z,2.42
2022-11-01T16:39:31.086Z,2.60
2022-11-01T16:42:03.578Z,2.25
2022-11-01T16:44:33.613Z,3.00
2022-11-01T16:47:03.418Z,2.80
2022-11-01T16:49:33.575Z,2.17
2022-11-01T16:52:03.350Z,2.83
2022-11-01T16:54:33.140Z,3.28
2022-11-01T16:57:06.514Z,3.50
2022-11-01T16:59:39.382Z,2.95
2022-11-01T17:02:18.364Z,2.92
2022-11-01T17:04:50.667Z,3.65
2022-11-01T17:07:20.463Z,3.08
2022-11-01T17:09:50.300Z,3.75
2022-11-01T17:12:23.298Z,3.65
2022-11-01T17:14:56.094Z,3.45
2022-11-01T17:17:27.489Z,3.65
2022-11-01T17:20:02.068Z,4.10
2022-11-01T17:22:36.297Z,3.88
2022-11-01T17:25:07.449Z,4.30
2022-11-01T17:27:40.093Z,4.03
2022-11-01T17:30:11.103Z,4.10
2022-11-01T17:32:40.940Z,4.38
2022-11-01T17:35:11.752Z,3.42
2022-11-01T17:37:42.605Z,3.50
2022-11-01T17:40:20.780Z,3.92
2022-11-01T17:42:53.227Z,3.67
2022-11-01T17:45:23.332Z,3.97
2022-11-01T17:47:56.047Z,4.47
2022-11-01T17:50:25.842Z,4.97
2022-11-01T17:52:55.550Z,5.60
2022-11-01T17:55:25.419Z,5.13
2022-11-01T17:57:57.954Z,5.75
2022-11-01T18:00:27.688Z,5.75
2022-11-01T18:02:58.117Z,6.85
2022-11-01T18:05:28.148Z,8.48
2022-11-01T18:07:57.860Z,7.75
2022-11-01T18:10:38.710Z,8.07
2022-11-01T18:13:30.907Z,7.63
2022-11-01T18:16:07.779Z,7.28
2022-11-01T18:18:54.736Z,7.28
2022-11-01T18:21:33.730Z,8.98
2022-11-01T18:24:13.587Z,7.78
2022-11-01T18:26:47.070Z,9.32
2022-11-01T18:29:23.649Z,8.65
2022-11-01T18:32:04.637Z,6.03
2022-11-01T18:34:40.977Z,4.85
2022-11-01T18:37:24.279Z,4.40
2022-11-01T18:40:03.084Z,4.43
2022-11-01T18:42:33.306Z,3.88
2022-11-01T18:45:17.956Z,4.25
2022-11-01T18:47:53.006Z,4.03
2022-11-01T18:50:26.355Z,4.15
2022-11-01T18:53:05.915Z,4.28
2022-11-01T18:55:35.818Z,3.38
2022-11-01T18:58:16.684Z,4.15
2022-11-01T19:00:50.216Z,4.10
2022-11-01T19:03:24.064Z,4.10
2022-11-01T19:05:54.187Z,4.35
2022-11-01T19:08:27.233Z,4.68
2022-11-01T19:10:57.530Z,5.28
2022-11-01T19:13:33.278Z,5.60
2022-11-01T19:16:06.165Z,5.65
2022-11-01T19:18:40.748Z,6.55
2022-11-01T19:21:18.628Z,6.90
2022-11-01T19:23:52.004Z,7.70
2022-11-01T19:26:25.802Z,6.95
2022-11-01T19:28:55.933Z,7.30
2022-11-01T19:31:34.210Z,7.22
2022-11-01T19:34:07.971Z,8.57
2022-11-01T19:36:40.927Z,7.88
2022-11-01T19:39:23.801Z,8.18
2022-11-01T19:41:55.291Z,10.05
2022-11-01T19:44:26.970Z,7.70
2022-11-01T19:47:22.358Z,8.55
2022-11-01T19:49:52.207Z,8.13
2022-11-01T19:52:27.284Z,7.95
2022-11-01T19:54:57.550Z,6.93
2022-11-01T19:57:32.631Z,7.85
2022-11-01T20:00:17.617Z,8.73
2022-11-01T20:02:51.451Z,8.23
2022-11-01T20:05:29.229Z,7.97
2022-11-01T20:08:15.088Z,8.00
2022-11-01T20:10:44.898Z,7.45
2022-11-01T20:13:14.654Z,8.00
2022-11-01T20:15:44.389Z,8.27
2022-11-01T20:18:16.732Z,9.40
2022-11-01T20:20:46.565Z,9.30
2022-11-01T20:23:31.844Z,8.55
2022-11-01T20:26:01.747Z,7.63
2022-11-01T20:28:31.512Z,7.72
2022-11-01T20:31:01.489Z,8.10
2022-11-01T20:33:34.321Z,7.82
2022-11-01T20:36:10.840Z,7.70
2022-11-01T20:38:41.119Z,7.95
2022-11-01T20:41:11.080Z,7.72
2022-11-01T20:43:40.868Z,7.18
2022-11-01T20:46:10.656Z,7.43
2022-11-01T20:48:45.237Z,7.72
2022-11-01T20:51:15.295Z,8.15
2022-11-01T20:53:45.042Z,7.90
2022-11-01T20:56:14.821Z,8.15
2022-11-01T20:58:44.647Z,8.63
2022-11-01T21:01:17.869Z,8.50
2022-11-01T21:03:50.278Z,9.13
2022-11-01T21:06:21.086Z,9.27
2022-11-01T21:08:51.924Z,9.27
2022-11-01T21:11:43.605Z,9.35
2022-11-01T21:14:17.913Z,7.93
2022-11-01T21:16:48.283Z,9.27
2022-11-01T21:19:24.338Z,9.02
2022-11-01T21:21:55.441Z,8.85
2022-11-01T21:24:36.773Z,8.60
2022-11-01T21:30:21.926Z,8.23
2022-11-01T21:32:52.813Z,7.95
2022-11-01T21:35:41.183Z,8.30
2022-11-01T21:38:31.446Z,7.95
2022-11-01T21:41:01.369Z,7.57
2022-11-01T21:43:35.662Z,8.20
2022-11-01T21:46:06.044Z,7.72
2022-11-01T21:48:36.300Z,7.32
2022-11-01T21:51:09.058Z,8.90
2022-11-01T21:53:38.928Z,7.75
2022-11-01T21:56:09.620Z,7.75
2022-11-01T21:58:39.367Z,7.22
2022-11-01T22:01:09.353Z,7.53
2022-11-01T22:03:39.185Z,7.38
2022-11-01T22:06:11.632Z,6.85
2022-11-01T22:08:41.394Z,6.68
2022-11-01T22:11:11.235Z,6.80
2022-11-01T22:13:41.015Z,6.15
2022-11-01T22:16:11.224Z,5.85
2022-11-01T22:18:41.069Z,5.47
2022-11-01T22:21:13.383Z,6.32
2022-11-01T22:23:43.944Z,5.18
2022-11-01T22:26:14.078Z,5.15
2022-11-01T22:28:43.904Z,5.03
2022-11-01T22:31:13.701Z,5.03
2022-11-01T22:33:45.867Z,5.13
2022-11-01T22:36:25.935Z,5.55
2022-11-01T22:38:57.916Z,5.65
2022-11-01T22:41:33.027Z,4.32
2022-11-01T22:44:06.784Z,4.28
2022-11-01T22:46:45.882Z,4.10
2022-11-01T22:49:21.506Z,4.43
2022-11-01T22:51:58.642Z,4.43
2022-11-01T22:54:35.888Z,4.80
2022-11-01T22:57:14.649Z,4.78
2022-11-01T22:59:47.421Z,4.32
2022-11-01T23:02:31.914Z,4.40
2022-11-01T23:05:21.853Z,3.88
2022-11-01T23:07:55.516Z,3.30
2022-11-01T23:10:28.288Z,3.00
2022-11-01T23:13:14.707Z,3.20
2022-11-01T23:15:44.557Z,2.97
2022-11-01T23:18:22.395Z,2.80
2022-11-01T23:20:57.847Z,2.80
2022-11-01T23:23:30.677Z,2.20
2022-11-01T23:26:03.331Z,2.28
2022-11-01T23:28:35.471Z,3.00
2022-11-01T23:31:07.027Z,3.20
2022-11-01T23:33:39.828Z,3.28
2022-11-01T23:36:19.601Z,2.78
2022-11-01T23:38:54.791Z,2.60
2022-11-01T23:41:26.631Z,2.45
2022-11-01T23:43:59.717Z,2.60
2022-11-01T23:46:29.771Z,2.97
2022-11-01T23:49:04.610Z,2.65
2022-11-01T23:51:34.472Z,2.78
2022-11-01T23:54:07.531Z,2.90
2022-11-01T23:56:37.281Z,2.40
2022-11-01T23:59:07.948Z,2.85
